Time;durP1;ratioP1;P1;durP2;ratioP2;P2;SDS_P1;SDS_P2;PMS_P1;PMS_P2;Temp;Humidity;BMP_temperature;BMP_pressure;BME280_temperature;BME280_humidity;BME280_pressure;Samples;Min_cycle;Max_cycle;Signal;HPM_P1;HPM_P2
2022/11/18 00:00:10;;;;;;;1.85;0.65;;;;;;;8.03;100.00;94973.13;5035242;28;20099;-71
2022/11/18 00:02:36;;;;;;;2.95;0.70;;;;;;;8.10;100.00;94969.59;5041003;28;20041;-70
2022/11/18 00:05:01;;;;;;;1.90;0.70;;;;;;;8.08;100.00;94980.91;5042012;28;20041;-69
2022/11/18 00:07:27;;;;;;;1.65;0.73;;;;;;;8.21;100.00;94979.34;5032074;28;20071;-70
2022/11/18 00:09:52;;;;;;;3.22;0.60;;;;;;;8.18;100.00;94980.13;5041023;28;20045;-72
2022/11/18 00:15:02;;;;;;;1.60;0.77;;;;;;;8.17;100.00;94975.81;5039619;28;20045;-72
2022/11/18 00:17:27;;;;;;;6.20;2.30;;;;;;;8.30;100.00;94970.75;5040317;28;20045;-72
2022/11/18 00:19:52;;;;;;;6.75;1.55;;;;;;;8.22;100.00;94969.19;5051491;28;20137;-73
2022/11/18 00:22:18;;;;;;;1.30;0.65;;;;;;;8.22;100.00;94956.34;5021925;28;20045;-72
2022/11/18 00:24:43;;;;;;;2.10;0.90;;;;;;;8.18;100.00;94963.75;5045564;28;20071;-72
2022/11/18 00:27:08;;;;;;;2.05;0.50;;;;;;;8.15;100.00;94956.34;5038199;28;20068;-71
2022/11/18 00:29:34;;;;;;;3.72;1.00;;;;;;;7.91;100.00;94949.78;5040554;28;20041;-71
2022/11/18 00:32:00;;;;;;;2.83;1.20;;;;;;;7.59;100.00;94945.13;5039429;28;20110;-70
2022/11/18 00:34:26;;;;;;;7.28;1.67;;;;;;;7.57;100.00;94950.19;5035804;28;20397;-70
2022/11/18 00:36:51;;;;;;;6.20;1.90;;;;;;;7.66;100.00;94953.31;5040887;28;20083;-72
2022/11/18 00:39:18;;;;;;;2.33;0.82;;;;;;;7.72;100.00;94945.50;5036144;28;20069;-72
2022/11/18 00:44:29;;;;;;;4.03;1.70;;;;;;;7.94;100.00;94957.19;5039282;28;20045;-72
2022/11/18 00:46:55;;;;;;;11.13;2.95;;;;;;;7.95;100.00;94964.19;5040317;28;20401;-71
2022/11/18 00:49:20;;;;;;;6.85;1.70;;;;;;;7.86;100.00;94955.63;5033055;28;20390;-71
2022/11/18 00:51:46;;;;;;;3.10;1.30;;;;;;;7.79;100.00;94961.84;5053039;28;20072;-70
2022/11/18 00:54:11;;;;;;;4.78;1.40;;;;;;;7.85;100.00;94963.03;5017197;28;20044;-71
2022/11/18 00:56:38;;;;;;;1.85;1.00;;;;;;;7.92;100.00;94964.97;5041303;28;20064;-70
2022/11/18 00:59:03;;;;;;;1.00;0.70;;;;;;;7.97;100.00;94966.53;5020713;28;20045;-64
2022/11/18 01:01:29;;;;;;;6.05;0.98;;;;;;;7.99;100.00;94970.41;5039889;28;20039;-70
2022/11/18 01:03:54;;;;;;;2.80;1.35;;;;;;;7.93;100.00;94973.94;5040957;28;20037;-70
2022/11/18 01:06:19;;;;;;;3.58;1.35;;;;;;;7.95;100.00;94974.31;5034350;28;20103;-70
2022/11/18 01:08:45;;;;;;;2.45;1.10;;;;;;;7.91;100.00;94996.13;5018540;28;20045;-70
2022/11/18 01:13:54;;;;;;;1.50;1.10;;;;;;;7.72;100.00;94985.63;5040688;28;20049;-71
2022/11/18 01:16:23;;;;;;;3.22;1.00;;;;;;;7.92;100.00;94984.03;5016777;28;20102;-71
2022/11/18 01:18:48;;;;;;;2.85;1.02;;;;;;;8.07;100.00;94978.56;5040515;28;20045;-70
2022/11/18 01:21:14;;;;;;;2.00;1.20;;;;;;;8.04;100.00;94969.22;5016367;28;20452;-69
2022/11/18 01:23:39;;;;;;;3.42;1.00;;;;;;;7.98;100.00;94966.13;5036266;28;20567;-71
2022/11/18 01:26:08;;;;;;;7.80;1.15;;;;;;;7.89;100.00;94976.66;5035362;28;20140;-65
2022/11/18 01:28:35;;;;;;;2.08;0.77;;;;;;;7.85;100.00;94979.38;5018289;28;20045;-70
2022/11/18 01:31:09;;;;;;;4.07;1.17;;;;;;;7.99;100.00;94984.03;5022466;28;20095;-70
2022/11/18 01:33:34;;;;;;;2.00;0.85;;;;;;;7.96;100.00;94992.22;5020569;28;20143;-70
2022/11/18 01:36:00;;;;;;;2.50;0.73;;;;;;;7.95;100.00;94987.94;5039597;28;20131;-70
2022/11/18 01:38:27;;;;;;;3.10;0.80;;;;;;;8.01;100.00;94983.66;5034733;28;20081;-69
2022/11/18 01:40:53;;;;;;;1.73;0.93;;;;;;;8.13;100.00;94985.97;5039870;28;20378;-70
2022/11/18 01:43:20;;;;;;;3.65;1.20;;;;;;;8.12;100.00;94983.63;5034151;28;20045;-71
2022/11/18 01:45:48;;;;;;;2.88;0.90;;;;;;;8.12;100.00;95002.72;5039127;28;20591;-71
2022/11/18 01:48:30;;;;;;;2.20;0.90;;;;;;;8.20;100.00;94999.59;5016570;28;20044;-70
2022/11/18 01:50:59;;;;;;;3.33;0.80;;;;;;;8.32;100.00;94987.50;5036030;28;20048;-69
2022/11/18 01:53:32;;;;;;;0.98;0.70;;;;;;;8.28;100.00;94972.28;5034174;28;20048;-71
2022/11/18 01:56:01;;;;;;;3.10;0.80;;;;;;;8.12;100.00;94992.59;5036420;28;20513;-70
2022/11/18 01:58:34;;;;;;;2.80;0.95;;;;;;;8.21;100.00;94990.25;5042958;28;20107;-68
2022/11/18 02:01:02;;;;;;;2.15;0.95;;;;;;;8.32;100.00;94990.22;5025596;28;20045;-70
2022/11/18 02:03:27;;;;;;;4.40;0.70;;;;;;;8.33;100.00;95001.91;5050779;28;20119;-70
2022/11/18 02:05:54;;;;;;;3.40;0.90;;;;;;;8.29;100.00;95025.69;5021641;28;20462;-71
2022/11/18 02:08:21;;;;;;;1.55;0.60;;;;;;;8.23;100.00;95028.81;5033348;28;20102;-70
2022/11/18 02:10:46;;;;;;;1.00;0.70;;;;;;;8.11;100.00;95037.41;5020972;28;20041;-71
2022/11/18 02:13:13;;;;;;;2.75;0.80;;;;;;;8.25;100.00;95039.34;5015169;28;20486;-72
2022/11/18 02:15:45;;;;;;;1.45;0.85;;;;;;;8.23;100.00;95031.53;5037954;28;20116;-71
2022/11/18 02:18:46;;;;;;;1.85;0.52;;;;;;;8.15;100.00;95029.22;5036377;28;20077;-67
2022/11/18 02:21:19;;;;;;;2.72;0.70;;;;;;;7.97;100.00;95024.53;4999368;28;20188;-71
2022/11/18 02:23:52;;;;;;;3.20;0.60;;;;;;;7.90;100.00;95023.78;5016003;28;20494;-71
2022/11/18 02:26:25;;;;;;;1.20;0.70;;;;;;;7.84;100.00;95015.97;5017711;28;20130;-70
2022/11/18 02:29:03;;;;;;;3.63;2.38;;;;;;;7.76;100.00;95028.06;5025248;28;20052;-70
2022/11/18 02:31:51;;;;;;;1.67;1.08;;;;;;;7.76;100.00;95028.06;5039635;28;20103;-70
2022/11/18 02:34:44;;;;;;;2.33;0.88;;;;;;;7.74;100.00;95033.13;5041058;28;20041;-70
2022/11/18 02:37:29;;;;;;;4.95;1.92;;;;;;;7.72;100.00;95030.00;5026285;28;20033;-70
2022/11/18 02:40:05;;;;;;;4.55;1.70;;;;;;;7.70;100.00;95035.06;5042167;28;20041;-69
2022/11/18 02:42:35;;;;;;;4.35;2.25;;;;;;;7.73;100.00;95028.06;5039404;28;20503;-70
2022/11/18 02:45:12;;;;;;;3.28;1.77;;;;;;;7.67;100.00;95035.84;5039403;28;20053;-70
2022/11/18 02:47:41;;;;;;;7.82;2.30;;;;;;;7.57;100.00;95039.34;5033929;28;20060;-69
2022/11/18 02:50:10;;;;;;;4.80;2.40;;;;;;;7.51;100.00;95038.16;5053556;28;20037;-68
2022/11/18 02:52:39;;;;;;;7.13;2.80;;;;;;;7.46;100.00;95031.16;5057866;28;20135;-70
2022/11/18 02:55:08;;;;;;;13.23;6.13;;;;;;;7.49;100.00;95037.75;5048229;28;20056;-66
2022/11/18 02:57:35;;;;;;;11.20;3.88;;;;;;;7.52;100.00;95054.09;5065024;28;20051;-70
2022/11/18 03:00:02;;;;;;;9.70;4.13;;;;;;;7.46;100.00;95050.22;5047410;28;20045;-69
2022/11/18 03:02:38;;;;;;;9.60;4.28;;;;;;;7.51;100.00;95049.84;5021567;28;20051;-71
2022/11/18 03:05:04;;;;;;;8.90;3.15;;;;;;;7.38;100.00;95052.16;5042273;28;20103;-63
2022/11/18 03:07:33;;;;;;;7.57;2.65;;;;;;;7.40;100.00;95044.38;5024267;28;20127;-72
2022/11/18 03:10:00;;;;;;;1.85;0.90;;;;;;;7.43;100.00;95043.56;5042469;28;20040;-72
2022/11/18 03:13:09;;;;;;;8.30;3.50;;;;;;;7.40;100.00;95051.75;5029305;28;20045;-72
2022/11/18 03:16:00;;;;;;;6.13;2.20;;;;;;;7.42;100.00;95054.88;4953733;28;20039;-70
2022/11/18 03:18:38;;;;;;;1.45;0.80;;;;;;;7.38;100.00;95052.16;5005293;28;20124;-71
2022/11/18 03:21:16;;;;;;;3.20;1.55;;;;;;;7.50;100.00;95055.66;5035670;28;20033;-66
2022/11/18 03:24:06;;;;;;;7.10;2.22;;;;;;;7.52;100.00;95054.09;5043000;28;20049;-70
2022/11/18 03:26:35;;;;;;;;;;;;;;;7.63;100.00;95059.56;5040829;28;20051;-69
2022/11/18 03:29:13;;;;;;;4.13;1.60;;;;;;;7.60;100.00;95055.69;5041073;28;19921;-70
2022/11/18 03:31:42;;;;;;;7.43;2.42;;;;;;;7.52;100.00;95062.28;5037944;28;20469;-70
2022/11/18 03:34:21;;;;;;;5.28;1.35;;;;;;;7.50;100.00;95069.28;5054956;28;20045;-66
2022/11/18 03:36:53;;;;;;;2.83;1.23;;;;;;;7.53;100.00;95072.03;5058155;28;20041;-70
2022/11/18 03:39:21;;;;;;;6.93;2.60;;;;;;;7.63;100.00;95068.53;5032350;28;20037;-68
2022/11/18 03:41:54;;;;;;;7.07;2.95;;;;;;;7.64;100.00;95077.50;5059206;28;20052;-67
2022/11/18 03:44:28;;;;;;;7.45;3.28;;;;;;;7.54;100.00;95081.75;5051731;28;20108;-71
2022/11/18 03:47:09;;;;;;;3.40;1.80;;;;;;;7.58;100.00;95092.66;5031864;28;20518;-71
2022/11/18 03:49:44;;;;;;;2.38;0.65;;;;;;;7.61;100.00;95078.25;5053104;28;20044;-70
2022/11/18 03:52:18;;;;;;;3.58;1.60;;;;;;;7.70;100.00;95097.72;5032399;28;20064;-70
2022/11/18 03:55:22;;;;;;;3.38;1.60;;;;;;;7.68;100.00;95089.16;5000250;28;20100;-68
2022/11/18 03:58:02;;;;;;;4.35;1.73;;;;;;;7.75;100.00;95091.91;5034764;28;20402;-68
2022/11/18 04:00:42;;;;;;;2.03;1.05;;;;;;;7.74;100.00;95093.09;5033529;28;20037;-71
2022/11/18 04:03:09;;;;;;;0.50;0.50;;;;;;;7.68;100.00;95100.06;5029987;28;20055;-65
2022/11/18 04:05:38;;;;;;;3.47;1.10;;;;;;;7.65;100.00;95107.09;5040567;28;20045;-70
2022/11/18 04:08:10;;;;;;;4.38;1.58;;;;;;;7.65;100.00;95098.09;5061159;28;20040;-65
2022/11/18 04:10:51;;;;;;;0.95;0.63;;;;;;;7.54;100.00;95105.50;5065692;28;20040;-66
2022/11/18 04:13:28;;;;;;;4.78;1.27;;;;;;;7.47;100.00;95112.50;5060516;28;20045;-65
2022/11/18 04:15:54;;;;;;;1.05;0.77;;;;;;;7.39;100.00;95115.56;5066182;28;20045;-65
2022/11/18 04:18:21;;;;;;;4.35;1.92;;;;;;;7.52;100.00;95111.31;5041576;28;20101;-66
2022/11/18 04:20:47;;;;;;;0.70;0.60;;;;;;;7.51;100.00;95125.31;5066039;28;20066;-69
2022/11/18 04:23:12;;;;;;;0.55;0.50;;;;;;;7.50;100.00;95130.00;5059299;28;20053;-66
2022/11/18 04:25:38;;;;;;;1.05;0.60;;;;;;;7.55;100.00;95113.28;5063396;28;20033;-66
2022/11/18 04:28:04;;;;;;;1.30;0.60;;;;;;;7.44;100.00;95118.69;5061823;28;20069;-64
2022/11/18 04:30:30;;;;;;;0.85;0.70;;;;;;;7.45;100.00;95122.19;5059513;28;20083;-66
2022/11/18 04:32:56;;;;;;;1.42;0.70;;;;;;;7.38;100.00;95120.25;5047031;28;20048;-69
2022/11/18 04:35:22;;;;;;;0.95;0.60;;;;;;;7.35;100.00;95129.19;5035662;28;20053;-67
2022/11/18 04:37:47;;;;;;;0.60;0.60;;;;;;;7.39;100.00;95127.25;5041215;28;20044;-70
2022/11/18 04:40:13;;;;;;;1.33;0.52;;;;;;;7.31;100.00;95125.66;5016288;28;20052;-67
2022/11/18 04:42:38;;;;;;;3.40;1.00;;;;;;;7.38;100.00;95122.97;5043301;28;20455;-68
2022/11/18 04:45:05;;;;;;;1.52;0.70;;;;;;;7.28;100.00;95126.44;5043749;28;20037;-65
2022/11/18 04:47:30;;;;;;;1.25;0.82;;;;;;;7.13;100.00;95132.97;5034531;28;20037;-70
2022/11/18 04:49:56;;;;;;;0.45;0.45;;;;;;;7.13;100.00;95143.84;5016113;28;20064;-69
2022/11/18 05:00:00;;;;;;;0.90;0.50;;;;;;;7.11;100.00;95166.00;5033408;28;20056;-70
2022/11/18 05:02:25;;;;;;;0.98;0.80;;;;;;;7.18;100.00;95160.59;5017892;28;20041;-69
2022/11/18 05:04:51;;;;;;;0.80;0.65;;;;;;;7.26;100.00;95175.06;5024811;28;20057;-69
2022/11/18 05:07:16;;;;;;;0.50;0.50;;;;;;;7.18;100.00;95174.22;5039791;28;20409;-70
2022/11/18 05:09:42;;;;;;;0.60;0.60;;;;;;;7.22;100.00;95171.50;5014372;28;20044;-70
2022/11/18 05:14:59;;;;;;;2.78;0.70;;;;;;;7.14;100.00;95181.59;5028184;28;20075;-70
2022/11/18 05:17:24;;;;;;;1.80;0.40;;;;;;;7.12;100.00;95185.88;5042092;28;20583;-70
2022/11/18 05:19:50;;;;;;;1.33;0.60;;;;;;;7.10;100.00;95188.19;5059495;28;20600;-69
2022/11/18 05:22:15;;;;;;;0.50;0.50;;;;;;;7.12;100.00;95194.81;5036986;28;20045;-70
2022/11/18 05:24:41;;;;;;;0.77;0.50;;;;;;;7.08;100.00;95188.56;5045009;28;20048;-70
2022/11/18 05:27:06;;;;;;;0.45;0.40;;;;;;;7.06;100.00;95193.63;5026249;28;20191;-71
2022/11/18 05:29:32;;;;;;;0.40;0.40;;;;;;;7.18;100.00;95200.69;5032951;28;20041;-71
2022/11/18 05:31:58;;;;;;;0.73;0.50;;;;;;;7.13;100.00;95201.03;5032542;28;20116;-70
2022/11/18 05:34:23;;;;;;;0.60;0.40;;;;;;;7.04;100.00;95207.63;5022489;28;20136;-71
2022/11/18 05:36:49;;;;;;;0.60;0.60;;;;;;;7.10;100.00;95196.38;5040250;28;20446;-69
2022/11/18 05:39:14;;;;;;;1.95;0.50;;;;;;;7.05;100.00;95200.22;5036596;28;20371;-70
2022/11/18 05:44:23;;;;;;;0.50;0.50;;;;;;;6.94;100.00;95204.81;5037397;28;20112;-70
2022/11/18 05:46:49;;;;;;;3.75;0.50;;;;;;;6.96;100.00;95199.78;5023173;28;20052;-69
2022/11/18 05:49:14;;;;;;;0.45;0.45;;;;;;;6.88;100.00;95205.19;5035278;28;20135;-70
2022/11/18 05:51:40;;;;;;;1.25;0.82;;;;;;;6.83;100.00;95193.88;5022485;28;20127;-70
2022/11/18 05:54:11;;;;;;;0.80;0.60;;;;;;;6.78;100.00;95203.16;5035551;28;20072;-70
2022/11/18 05:56:39;;;;;;;1.23;0.70;;;;;;;6.77;100.00;95203.53;5042781;28;20048;-67
2022/11/18 05:59:05;;;;;;;0.50;0.50;;;;;;;6.75;100.00;95214.00;5012223;28;20056;-66
2022/11/18 06:01:34;;;;;;;1.30;0.60;;;;;;;6.77;100.00;95220.66;5031613;28;20402;-67
2022/11/18 06:04:02;;;;;;;1.50;0.50;;;;;;;6.74;100.00;95226.84;5032342;28;20061;-69
2022/11/18 06:06:36;;;;;;;0.40;0.40;;;;;;;6.76;100.00;95223.75;5026649;28;20053;-69
2022/11/18 06:09:04;;;;;;;0.45;0.45;;;;;;;6.73;100.00;95225.28;5021218;28;20056;-64
2022/11/18 06:11:36;;;;;;;0.60;0.55;;;;;;;6.76;100.00;95234.63;5032862;28;20040;-71
2022/11/18 06:14:08;;;;;;;0.60;0.60;;;;;;;6.75;100.00;95242.00;5055424;28;20109;-66
2022/11/18 06:16:35;;;;;;;2.30;0.80;;;;;;;6.70;100.00;95247.81;5040307;28;20041;-67
2022/11/18 06:19:01;;;;;;;0.82;0.63;;;;;;;6.72;100.00;95239.25;5073621;28;20040;-67
2022/11/18 06:21:28;;;;;;;1.30;0.60;;;;;;;6.75;100.00;95241.22;5073782;28;20104;-68
2022/11/18 06:23:54;;;;;;;0.95;0.55;;;;;;;6.62;100.00;95233.34;5047567;28;21157;-69
2022/11/18 06:26:19;;;;;;;1.10;0.70;;;;;;;6.70;100.00;95245.09;5043426;28;20041;-70
2022/11/18 06:28:46;;;;;;;0.65;0.43;;;;;;;6.76;100.00;95229.97;5064211;28;20044;-69
2022/11/18 06:31:12;;;;;;;0.85;0.60;;;;;;;6.80;100.00;95238.94;5040558;28;20113;-71
2022/11/18 06:33:37;;;;;;;0.77;0.60;;;;;;;6.75;100.00;95231.13;5055913;28;20113;-69
2022/11/18 06:36:03;;;;;;;1.00;0.60;;;;;;;6.75;100.00;95255.59;5049980;28;20397;-63
2022/11/18 06:38:28;;;;;;;2.33;0.82;;;;;;;6.82;100.00;95254.88;5040892;28;20044;-68
2022/11/18 06:41:01;;;;;;;0.50;0.50;;;;;;;6.80;100.00;95257.97;5041913;28;20044;-68
2022/11/18 06:43:40;;;;;;;1.67;0.68;;;;;;;6.79;100.00;95263.78;5016355;28;20048;-66
2022/11/18 06:48:53;;;;;;;0.60;0.50;;;;;;;6.84;100.00;95261.53;5023824;28;20128;-69
2022/11/18 06:51:19;;;;;;;2.40;1.25;;;;;;;6.86;100.00;95270.09;5018610;28;20077;-67
2022/11/18 06:53:44;;;;;;;1.33;0.80;;;;;;;6.89;100.00;95274.00;5028035;28;20037;-69
2022/11/18 06:56:12;;;;;;;1.70;0.90;;;;;;;6.92;100.00;95275.97;5022965;28;20041;-68
2022/11/18 06:58:38;;;;;;;3.22;1.00;;;;;;;6.84;100.00;95286.03;5026613;28;20080;-69
2022/11/18 07:01:10;;;;;;;1.42;0.70;;;;;;;7.00;100.00;95284.97;5040961;28;20044;-66
2022/11/18 07:03:37;;;;;;;2.15;0.70;;;;;;;6.96;100.00;95287.66;5028303;28;20398;-69
2022/11/18 07:06:02;;;;;;;3.28;0.95;;;;;;;6.92;100.00;95291.53;5025257;28;20037;-66
2022/11/18 07:08:28;;;;;;;2.58;0.80;;;;;;;6.96;100.00;95289.59;5023611;28;20037;-71
2022/11/18 07:10:53;;;;;;;1.75;1.30;;;;;;;6.89;100.00;95293.81;5026314;28;20037;-71
2022/11/18 07:13:19;;;;;;;0.50;0.50;;;;;;;6.87;100.00;95300.81;5035898;28;20126;-71
2022/11/18 07:15:44;;;;;;;0.90;0.70;;;;;;;7.00;100.00;95304.78;5025388;28;20041;-71
2022/11/18 07:18:10;;;;;;;0.60;0.60;;;;;;;6.99;100.00;95310.63;5040056;28;20037;-70
2022/11/18 07:20:35;;;;;;;1.42;0.60;;;;;;;7.06;100.00;95313.41;5012217;28;20055;-73
2022/11/18 07:23:00;;;;;;;0.93;0.68;;;;;;;7.06;100.00;95318.84;5030892;28;20060;-71
2022/11/18 07:25:26;;;;;;;0.90;0.63;;;;;;;6.98;100.00;95333.56;5037985;28;20962;-70
2022/11/18 07:27:51;;;;;;;1.65;0.70;;;;;;;7.02;100.00;95337.88;5041553;28;20047;-68
2022/11/18 07:30:17;;;;;;;0.60;0.60;;;;;;;7.01;100.00;95336.31;5039597;28;20103;-70
2022/11/18 07:32:42;;;;;;;1.35;0.70;;;;;;;7.03;100.00;95344.09;5039185;28;20109;-67
2022/11/18 07:35:08;;;;;;;2.15;0.68;;;;;;;6.97;100.00;95340.94;5031543;28;20041;-70
2022/11/18 07:37:33;;;;;;;2.03;0.80;;;;;;;6.98;100.00;95353.38;5039584;28;20033;-70
2022/11/18 07:39:59;;;;;;;0.93;0.80;;;;;;;6.97;100.00;95354.56;5042796;28;20061;-69
2022/11/18 07:42:24;;;;;;;1.00;0.75;;;;;;;7.05;100.00;95358.91;5038451;28;20063;-69
2022/11/18 07:44:50;;;;;;;6.90;0.68;;;;;;;6.97;100.00;95367.38;5030381;28;20041;-69
2022/11/18 07:47:15;;;;;;;1.92;0.80;;;;;;;6.96;100.00;95369.31;5045815;28;20052;-73
2022/11/18 07:49:41;;;;;;;1.50;0.70;;;;;;;6.93;100.00;95370.06;5018858;28;20041;-70
2022/11/18 07:52:06;;;;;;;1.25;0.52;;;;;;;6.82;100.00;95377.34;5037351;28;20075;-64
2022/11/18 07:54:31;;;;;;;0.63;0.63;;;;;;;6.72;100.00;95386.19;5041761;28;20037;-70
2022/11/18 07:56:57;;;;;;;1.13;0.80;;;;;;;6.68;100.00;95384.22;5036122;28;20056;-70
2022/11/18 07:59:22;;;;;;;2.95;0.80;;;;;;;6.81;100.00;95382.03;5047985;28;20476;-70
2022/11/18 08:01:47;;;;;;;1.25;0.73;;;;;;;6.72;100.00;95389.72;5037964;28;20041;-69
2022/11/18 08:04:14;;;;;;;1.58;1.00;;;;;;;6.82;100.00;95404.56;5039882;28;20505;-70
2022/11/18 08:06:39;;;;;;;4.90;0.80;;;;;;;6.83;100.00;95401.47;5045495;28;20091;-70
2022/11/18 08:09:06;;;;;;;1.60;0.50;;;;;;;6.78;100.00;95409.97;5029729;28;20065;-65
2022/11/18 08:11:32;;;;;;;1.20;0.63;;;;;;;6.87;100.00;95413.16;5027296;28;20037;-70
2022/11/18 08:13:57;;;;;;;1.35;0.80;;;;;;;7.08;100.00;95409.88;5047972;28;20592;-66
2022/11/18 08:16:24;;;;;;;0.85;0.65;;;;;;;7.02;100.00;95410.59;5036282;28;20045;-68
2022/11/18 08:18:51;;;;;;;0.70;0.70;;;;;;;6.95;100.00;95410.53;5042622;28;20052;-68
2022/11/18 08:21:18;;;;;;;0.70;0.60;;;;;;;7.04;100.00;95416.44;5037330;28;20033;-71
2022/11/18 08:23:49;;;;;;;1.30;0.60;;;;;;;7.06;100.00;95406.75;5043324;28;20494;-68
2022/11/18 08:26:15;;;;;;;3.17;1.08;;;;;;;7.01;100.00;95417.97;5017373;28;20055;-66
2022/11/18 08:28:42;;;;;;;8.23;4.00;;;;;;;7.20;100.00;95417.00;5046717;28;20127;-68
2022/11/18 08:31:23;;;;;;;1.48;0.90;;;;;;;7.28;100.00;95418.59;5021566;28;20048;-63
2022/11/18 08:33:54;;;;;;;1.27;0.80;;;;;;;7.38;100.00;95413.63;5036465;28;20573;-67
2022/11/18 08:36:22;;;;;;;0.75;0.60;;;;;;;7.45;100.00;95416.41;5033183;28;20111;-67
2022/11/18 08:38:47;;;;;;;3.53;0.80;;;;;;;7.26;100.00;95412.75;5038973;28;20041;-68
2022/11/18 08:41:16;;;;;;;0.60;0.50;;;;;;;7.23;100.00;95418.16;5036395;28;20444;-66
2022/11/18 08:43:41;;;;;;;0.95;0.60;;;;;;;7.38;100.00;95422.59;5042377;28;20584;-68
2022/11/18 08:46:07;;;;;;;1.85;0.70;;;;;;;7.67;100.00;95420.09;5036124;28;20041;-67
2022/11/18 08:48:32;;;;;;;1.23;0.60;;;;;;;7.53;100.00;95428.94;5042004;28;20192;-69
2022/11/18 08:50:59;;;;;;;0.90;0.60;;;;;;;7.75;100.00;95429.84;5022935;28;20048;-68
2022/11/18 08:53:24;;;;;;;0.80;0.70;;;;;;;7.91;100.00;95436.97;5031058;28;20051;-68
2022/11/18 08:55:59;;;;;;;0.60;0.60;;;;;;;8.03;100.00;95433.91;5039570;28;20123;-69
2022/11/18 08:58:25;;;;;;;0.95;0.52;;;;;;;8.19;100.00;95431.69;5035870;28;20479;-67
2022/11/18 09:00:51;;;;;;;1.25;0.75;;;;;;;8.08;100.00;95428.09;5041710;28;20118;-66
2022/11/18 09:03:16;;;;;;;1.58;0.60;;;;;;;8.07;100.00;95433.94;5030800;28;20490;-71
2022/11/18 09:05:42;;;;;;;2.10;0.80;;;;;;;8.18;100.00;95432.06;5040866;28;20037;-68
2022/11/18 09:08:07;;;;;;;1.95;0.70;;;;;;;8.17;100.00;95438.69;5037181;28;20486;-65
2022/11/18 09:10:33;;;;;;;1.33;0.73;;;;;;;8.06;100.00;95440.56;5040814;28;20045;-68
2022/11/18 09:12:59;;;;;;;8.45;4.50;;;;;;;8.09;100.00;95448.78;5044058;28;20079;-68
2022/11/18 09:15:25;;;;;;;1.08;0.60;;;;;;;8.06;100.00;95456.94;5048402;28;20045;-73
2022/11/18 09:17:51;;;;;;;0.77;0.60;;;;;;;8.28;100.00;95444.97;5054532;28;20035;-75
2022/11/18 09:20:17;;;;;;;3.53;0.90;;;;;;;8.24;100.00;95442.22;5049410;28;20539;-69
2022/11/18 09:22:42;;;;;;;0.40;0.40;;;;;;;8.24;100.00;95450.41;5040139;28;20048;-67
2022/11/18 09:25:08;;;;;;;1.00;0.60;;;;;;;8.12;100.00;95448.03;5035161;28;20040;-66
2022/11/18 09:27:34;;;;;;;2.80;0.60;;;;;;;8.01;100.00;95456.13;5033172;28;20100;-66
2022/11/18 09:29:59;;;;;;;10.35;5.47;;;;;;;8.00;100.00;95460.00;5046453;28;20053;-66
2022/11/18 09:32:24;;;;;;;2.33;0.80;;;;;;;7.95;100.00;95451.41;5043846;28;20438;-67
2022/11/18 09:34:50;;;;;;;0.77;0.57;;;;;;;7.92;100.00;95457.63;5050318;28;20037;-66
2022/11/18 09:37:15;;;;;;;1.52;0.68;;;;;;;7.78;100.00;95459.09;5035386;28;20124;-66
2022/11/18 09:39:41;;;;;;;2.63;0.75;;;;;;;8.01;100.00;95455.34;5040253;28;20041;-65
2022/11/18 09:42:21;;;;;;;0.82;0.60;;;;;;;7.94;100.00;95460.75;5035303;28;20067;-68
2022/11/18 09:44:58;;;;;;;3.30;0.60;;;;;;;7.85;100.00;95453.69;5023068;28;20048;-70
2022/11/18 09:47:28;;;;;;;2.20;1.00;;;;;;;7.89;100.00;95461.91;5035765;28;20059;-67
2022/11/18 09:50:00;;;;;;;1.38;0.95;;;;;;;7.88;100.00;95454.88;5038935;28;20131;-64
2022/11/18 09:52:31;;;;;;;2.75;0.75;;;;;;;7.74;100.00;95457.50;5044422;28;20136;-68
2022/11/18 09:54:58;;;;;;;0.52;0.52;;;;;;;7.89;100.00;95469.31;5043383;28;20037;-67
2022/11/18 09:57:51;;;;;;;1.40;1.00;;;;;;;7.91;100.00;95475.16;5032259;28;20569;-68
2022/11/18 10:00:25;;;;;;;1.33;0.90;;;;;;;8.03;100.00;95481.06;5018991;28;20037;-68
2022/11/18 10:02:59;;;;;;;1.95;0.90;;;;;;;8.04;100.00;95476.41;5043045;28;20056;-69
2022/11/18 10:05:32;;;;;;;2.28;1.10;;;;;;;7.80;100.00;95470.41;5021866;28;20520;-74
2022/11/18 10:08:21;;;;;;;2.40;1.00;;;;;;;7.92;100.00;95485.66;5045496;28;20037;-66
2022/11/18 10:11:23;;;;;;;0.77;0.77;;;;;;;8.11;100.00;95481.13;5038067;28;20090;-69
2022/11/18 10:14:04;;;;;;;2.20;1.35;;;;;;;8.14;100.00;95480.34;5035698;28;20087;-68
2022/11/18 10:17:24;;;;;;;2.92;1.38;;;;;;;8.18;100.00;95492.84;5022738;28;20095;-69
2022/11/18 10:20:05;;;;;;;;;;;;;;;8.17;100.00;95485.03;4964600;28;20038;-67
2022/11/18 10:22:48;;;;;;;1.25;0.82;;;;;;;8.29;100.00;95492.13;5020303;28;19920;-68
2022/11/18 10:25:15;;;;;;;3.53;1.00;;;;;;;8.55;100.00;95482.94;5040439;28;20044;-66
2022/11/18 10:27:43;;;;;;;1.70;0.90;;;;;;;8.36;100.00;95490.22;5044358;28;20087;-67
2022/11/18 10:30:14;;;;;;;0.95;0.80;;;;;;;8.31;100.00;95493.31;5055745;28;20123;-66
2022/11/18 10:32:56;;;;;;;28.00;12.68;;;;;;;8.09;100.00;95500.59;5064398;28;20048;-68
2022/11/18 10:35:25;;;;;;;3.10;1.17;;;;;;;8.10;100.00;95496.69;5062579;28;20155;-66
2022/11/18 10:38:00;;;;;;;1.10;0.90;;;;;;;8.09;100.00;95499.81;5065214;28;20045;-67
2022/11/18 10:40:28;;;;;;;1.70;0.90;;;;;;;8.10;100.00;95498.63;5042694;28;20052;-68
2022/11/18 10:42:53;;;;;;;3.03;1.00;;;;;;;7.93;100.00;95502.81;5047500;28;20041;-69
2022/11/18 10:45:24;;;;;;;1.42;1.00;;;;;;;7.87;100.00;95498.84;5021438;28;20672;-67
2022/11/18 10:48:16;;;;;;;1.30;0.90;;;;;;;7.89;100.00;95502.78;5043863;28;20041;-65
2022/11/18 10:50:43;;;;;;;2.25;1.40;;;;;;;7.93;100.00;95497.34;5009551;28;20080;-70
2022/11/18 10:53:34;;;;;;;1.42;0.88;;;;;;;7.87;100.00;95498.84;5038753;28;20049;-67
2022/11/18 10:56:01;;;;;;;1.27;0.98;;;;;;;7.85;100.00;95500.03;5023163;28;20049;-69
2022/11/18 10:58:31;;;;;;;3.78;1.10;;;;;;;8.01;100.00;95505.22;5036749;28;20045;-67
2022/11/18 11:01:09;;;;;;;;;;;;;;;8.08;100.00;95504.47;5044674;28;20143;-69
2022/11/18 11:03:41;;;;;;;2.40;1.00;;;;;;;8.20;100.00;95500.66;5038047;28;20590;-67
2022/11/18 11:06:37;;;;;;;1.67;0.93;;;;;;;8.26;100.00;95503.81;5029517;28;20550;-69
2022/11/18 11:09:21;;;;;;;1.50;1.00;;;;;;;8.22;100.00;95501.06;5037926;28;20049;-70
2022/11/18 11:12:11;;;;;;;1.08;0.85;;;;;;;8.46;100.00;95502.38;5043768;28;20048;-66
2022/11/18 11:14:50;;;;;;;2.65;1.23;;;;;;;8.54;100.00;95495.81;5034649;28;20060;-67
2022/11/18 11:17:28;;;;;;;1.50;0.88;;;;;;;8.34;100.00;95502.69;5019798;28;20091;-64
2022/11/18 11:20:08;;;;;;;1.42;1.00;;;;;;;8.22;100.00;95498.31;5042402;28;20069;-65
2022/11/18 11:22:33;;;;;;;4.53;0.90;;;;;;;8.10;100.00;95499.41;5028435;28;20045;-66
2022/11/18 11:24:59;;;;;;;1.20;1.00;;;;;;;8.13;100.00;95504.13;5053756;28;20055;-65
2022/11/18 11:27:48;;;;;;;2.97;0.93;;;;;;;8.13;100.00;95506.84;5029250;28;20048;-64
2022/11/18 11:30:19;;;;;;;1.45;1.10;;;;;;;8.19;100.00;95510.78;5051219;28;20041;-68
2022/11/18 11:33:04;;;;;;;2.20;0.90;;;;;;;8.16;100.00;95508.81;5024387;28;20060;-67
2022/11/18 11:35:45;;;;;;;1.20;0.95;;;;;;;8.16;100.00;95513.50;5018890;28;20052;-67
2022/11/18 11:38:14;;;;;;;1.45;0.95;;;;;;;7.93;100.00;95511.75;5036718;28;20084;-65
2022/11/18 11:41:22;;;;;;;3.38;1.20;;;;;;;7.96;100.00;95507.50;5041995;28;20044;-67
2022/11/18 11:44:15;;;;;;;3.70;1.10;;;;;;;7.90;100.00;95514.47;4963128;28;20047;-69
2022/11/18 11:47:45;;;;;;;3.10;1.00;;;;;;;7.98;100.00;95507.91;4959887;28;20042;-68
2022/11/18 11:49:42;;;;;;;1.27;0.90;;;;;;;8.12;100.00;95508.03;5027205;28;20041;-66
2022/11/18 11:52:20;;;;;;;2.88;1.30;;;;;;;8.49;100.00;95517.22;5038109;28;20037;-68
2022/11/18 11:55:06;;;;;;;2.63;0.90;;;;;;;8.47;100.00;95505.91;5042388;28;20060;-67
2022/11/18 11:57:53;;;;;;;2.95;1.10;;;;;;;8.79;100.00;95506.84;5039588;28;20044;-67
2022/11/18 12:00:19;;;;;;;2.95;1.27;;;;;;;8.91;100.00;95511.19;5026139;28;20083;-67
2022/11/18 12:03:03;;;;;;;4.18;1.10;;;;;;;8.67;100.00;95503.66;5040957;28;20569;-66
2022/11/18 12:05:38;;;;;;;2.20;1.27;;;;;;;8.60;100.00;95505.19;5035655;28;20045;-69
2022/11/18 12:08:29;;;;;;;2.30;1.40;;;;;;;8.56;100.00;95511.81;5037535;28;20568;-65
2022/11/18 12:11:16;;;;;;;9.57;5.05;;;;;;;8.56;100.00;95503.63;5040627;28;20051;-68
2022/11/18 12:14:06;;;;;;;2.25;0.82;;;;;;;8.46;100.00;95515.25;5021182;28;20049;-69